Historyczne dane pomiarowe

Dodano dane terminowe – wersja testowa.

Dane z okresu 1951-2019

Wersja bazy: 1.34 [2019-03-16, lista zmian], aktualizacja planowana na 2019-04-15

Dane meteo z obszaru Polski uzyskane na podstawie danych udostępnionych przez Instytut Meteorologii i Gospodarki Wodnej – Państwowy Instytut Badawczy.

 

Wybierz Datę:    

       

TemperaturaWilgotnośćWiatrCiśnienieOpadyŚniegCzas trwania zjawisk
 Stacja t tx tn tng RH VA  wxwx mslp ppp RRR   cm mm wxwxwxwxwxwxwx
1956-11-09 -1.8 4.8 -6.4-11.7 71.8- 1.0 0.0---- 0.0-- 1---------
1956-11-08 -0.2 2.4 -1.8 -1.2 90.0- 4.7 1.7---- 0.0-- 3---------
1956-11-07 0.4 6.3 -0.2 -0.2100.0- 8.0 0.0---- 15.8-- 3---------
1956-11-06 3.8 5.6 0.8 -0.4 87.5- 7.7 9.0---- 34.2------------
1956-11-05 4.5 6.9 0.8 0.5 87.8- 8.0 7.7---- 4.9------------
1956-11-04 0.2 3.5 -6.0-12.7 86.8- 7.0 0.3---- 0.2------------
1956-11-03 -1.2 1.7 -4.3 -5.7 91.3- 0.3 0.0---- 0.0-- 1---------
1956-11-02 -1.0 0.0 -5.0-10.8 97.5- 0.3 0.0---- 0.8------------
1956-11-01 -2.9 5.3 -9.9-15.2 79.8- 0.3 0.0---- 0.0------------
1956-10-31 -4.8 3.2 -6.1 -3.5 81.5- 5.0 4.7---- 0.0------------
1956-10-30 3.8 6.6 1.8 -1.7 93.5- 7.7 2.0---- 0.3------------
1956-10-29 4.1 7.7 3.0 4.6 96.5- 8.0 3.3---- 14.6------------
1956-10-28 5.9 7.8 4.2 4.5 98.0- 8.0 1.3---- 49.7------------
1956-10-27 6.2 9.6 1.5 1.0 98.3- 7.7 2.0---- 9.6------------
1956-10-26 4.7 9.9 3.6 5.6 97.0- 8.0 0.7---- 32.4------------
1956-10-25 11.1 14.6 8.8 6.6 77.0- 6.3 3.3---- 14.1------------
1956-10-24 11.4 18.7 0.6 -3.6 76.8- 2.3 2.3---- 0.0------------
1956-10-23 6.6 17.1 1.5 -2.0 90.0- 1.3 0.0---- 0.0------------
1956-10-22 8.4 18.8 2.5 -1.6 86.0- 0.3 1.3---- 0.0------------
1956-10-21 9.1 18.2 5.2 0.3 89.5- 3.3 1.7---- 0.0------------
1956-10-20 10.7 14.8 6.8 2.0 91.0- 7.7 0.3---- 0.0------------
1956-10-19 11.9 14.4 10.9 9.4 90.8- 7.7 3.7---- 0.6------------
1956-10-18 11.2 13.2 3.7 5.2 88.3- 5.3 1.0---- 4.1------------
1956-10-17 5.6 17.4 -3.1 -7.2 84.0- 2.0 0.3---- 0.0------------
1956-10-16 3.4 15.5 -4.5 -9.8 81.3- 0.0 1.0---- 0.0------------
1956-10-15 4.1 12.6 0.9 -4.3 87.0- 0.0 1.0---- 0.0------------
1956-10-14 9.5 12.3 7.5 6.6 92.3- 6.3 7.0---- 1.3------------
1956-10-13 9.7 11.9 6.7 3.1 77.5- 5.0 9.0---- 0.0------------
1956-10-12 8.9 14.7 1.1 -4.2 77.0- 4.3 1.0---- 0.0------------
1956-10-11 2.4 11.4 -4.0 -9.4 89.3- 1.0 1.3---- 0.0------------
1956-10-10 2.1 8.4 -1.8 1.7 86.3- 3.3 2.0---- 0.0------------
1956-10-09 6.9 8.7 0.1 -4.2 87.5- 8.0 2.7---- 3.5------------
1956-10-08 2.2 8.1 -1.9 -6.1 91.3- 4.3 1.0---- 0.0------------
1956-10-07 4.1 9.1 1.6 2.0 85.5- 5.3 6.0---- 0.1------------
1956-10-06 4.5 7.6 2.3 2.8 89.0- 8.0 4.7---- 3.4------------
1956-10-05 8.5 12.0 5.2 1.5 82.8- 6.3 2.3---- 11.2------------
1956-10-04 8.8 13.9 6.2 3.0 88.0- 4.7 2.3---- 1.0------------
1956-10-03 12.5 18.1 7.5 8.6 79.3- 5.3 7.3---- 4.1------------
1956-10-02 16.2 24.3 5.8 1.6 72.8- 2.7 2.7---- 0.0------------
1956-10-01 13.9 24.3 7.2 3.2 85.5- 2.7 2.0---- 0.0------------
1956-09-30 11.9 19.5 8.4 2.5 88.3- 2.3 0.3---- 0.0------------
1956-09-29 15.3 19.6 12.9 10.5 81.8- 7.3 5.3---- 0.0------------
1956-09-28 15.3 18.3 11.2 8.1 71.0- 4.0 3.3---- 0.0------------
1956-09-27 14.4 21.1 9.3 2.7 82.5- 4.7 1.3---- 0.2------------
1956-09-26 17.1 21.1 14.1 10.0 49.3- 1.0 7.3---- 0.0------------
1956-09-25 18.2 21.5 9.4 5.7 44.8- 0.0 7.3---- 0.0------------
1956-09-24 10.6 15.6 7.4 4.5 82.8- 0.3 7.7---- 0.0------------
1956-09-23 13.0 19.2 4.2 -1.0 72.5- 0.0 5.3---- 0.0------------
1956-09-22 12.5 21.5 0.8 -0.2 71.0- 0.0 1.3---- 0.0------------
1956-09-21 9.3 20.2 0.6 -4.1 86.0- 0.0 0.0---- 0.0------------
1956-09-20 7.6 18.1 -0.6 -5.5 84.0- 4.3 0.0---- 0.0------------
1956-09-19 6.2 14.8 -0.9 -5.2 82.0- 0.7 2.0---- 0.0------------
1956-09-18 6.5 13.4 4.1 3.4 89.5- 4.7 0.3---- 0.0------------
1956-09-17 9.4 10.5 6.7 0.5 93.0- 7.3 4.7---- 12.1------------
1956-09-16 8.7 16.8 2.3 -1.4 87.0- 2.7 0.0---- 0.0------------
1956-09-15 7.3 13.8 0.1 -2.3 95.0- 0.7 1.3---- 0.0------------
1956-09-14 8.2 14.6 5.7 8.2 88.5- 5.3 1.3---- 0.0------------
1956-09-13 8.3 11.9 7.2 6.7 87.3- 7.0 5.3---- 10.9------------
1956-09-12 9.8 14.8 8.1 7.2 83.8- 7.0 6.0---- 8.3------------
1956-09-11 13.6 17.5 10.4 15.9 92.0- 5.0 3.0---- 5.3------------
178.7 ms

 

Źródłem pochodzenia danych jest Instytut Meteorologii i Gospodarki Wodnej – Państwowy Instytut Badawczy. Dane Instytutu Meteorologii i Gospodarki Wodnej – Państwowego Instytutu Badawczego zostały przetworzone.

Dane źródłowe można odnaleźć na stronie https://dane.imgw.pl